createdAt,value
2024-03-12T00:00:30.005Z,4.63
2024-03-12T00:02:58.161Z,4.95
2024-03-12T00:05:26.094Z,5.47
2024-03-12T00:07:53.915Z,4.13
2024-03-12T00:10:21.723Z,5.22
2024-03-12T00:12:52.896Z,5.82
2024-03-12T00:15:22.751Z,5.80
2024-03-12T00:17:51.291Z,5.22
2024-03-12T00:20:19.592Z,5.55
2024-03-12T00:22:48.274Z,3.95
2024-03-12T00:25:17.221Z,4.00
2024-03-12T00:27:45.240Z,3.65
2024-03-12T00:30:15.259Z,3.13
2024-03-12T00:32:44.460Z,7.70
2024-03-12T00:35:12.636Z,8.38
2024-03-12T00:37:40.678Z,6.43
2024-03-12T00:40:12.325Z,4.50
2024-03-12T00:42:41.105Z,3.05
2024-03-12T00:45:12.643Z,4.47
2024-03-12T00:47:42.622Z,6.40
2024-03-12T00:50:12.423Z,3.72
2024-03-12T00:52:41.330Z,8.00
2024-03-12T00:55:10.606Z,3.33
2024-03-12T00:57:39.809Z,5.05
2024-03-12T01:00:17.606Z,6.70
2024-03-12T01:02:50.222Z,3.70
2024-03-12T01:05:19.135Z,4.30
2024-03-12T01:07:49.053Z,3.63
2024-03-12T01:10:21.523Z,4.18
2024-03-12T01:12:50.385Z,4.22
2024-03-12T01:15:19.284Z,3.58
2024-03-12T01:17:49.089Z,7.00
2024-03-12T01:20:21.555Z,5.95
2024-03-12T01:22:51.655Z,3.63
2024-03-12T01:25:22.250Z,3.03
2024-03-12T01:27:50.223Z,3.15
2024-03-12T01:30:21.832Z,3.45
2024-03-12T01:32:52.623Z,3.03
2024-03-12T01:35:21.955Z,4.80
2024-03-12T01:37:50.780Z,4.47
2024-03-12T01:40:23.027Z,2.75
2024-03-12T01:42:51.365Z,4.40
2024-03-12T01:45:22.152Z,2.50
2024-03-12T01:47:51.693Z,3.15
2024-03-12T01:50:20.142Z,3.60
2024-03-12T01:52:48.250Z,3.03
2024-03-12T01:55:17.665Z,7.68
2024-03-12T01:57:46.629Z,5.97
2024-03-12T02:00:15.223Z,3.05
2024-03-12T02:02:42.982Z,5.75
2024-03-12T02:05:12.393Z,3.65
2024-03-12T02:07:40.924Z,3.70
2024-03-12T02:10:11.113Z,4.43
2024-03-12T02:12:38.989Z,3.00
2024-03-12T02:15:07.504Z,3.38
2024-03-12T02:17:35.757Z,3.60
2024-03-12T02:20:03.851Z,4.10
2024-03-12T02:22:33.065Z,3.80
2024-03-12T02:25:02.577Z,4.05
2024-03-12T02:27:31.059Z,2.67
2024-03-12T02:29:58.915Z,4.75
2024-03-12T02:32:26.938Z,3.53
2024-03-12T02:34:54.957Z,5.18
2024-03-12T02:37:23.065Z,4.32
2024-03-12T02:39:50.973Z,4.90
2024-03-12T02:42:20.168Z,6.40
2024-03-12T02:44:47.970Z,5.53
2024-03-12T02:47:17.199Z,9.23
2024-03-12T02:49:45.023Z,4.22
2024-03-12T02:52:13.121Z,7.30
2024-03-12T02:54:42.788Z,3.75
2024-03-12T02:57:10.987Z,8.65
2024-03-12T02:59:40.210Z,7.60
2024-03-12T03:02:08.523Z,6.57
2024-03-12T03:04:38.055Z,7.07
2024-03-12T03:07:06.204Z,5.05
2024-03-12T03:09:34.128Z,4.70
2024-03-12T03:12:02.122Z,7.05
2024-03-12T03:14:29.972Z,5.88
2024-03-12T03:16:59.211Z,10.40
2024-03-12T03:19:27.060Z,6.20
2024-03-12T03:21:55.568Z,4.95
2024-03-12T03:24:23.564Z,5.15
2024-03-12T03:26:52.341Z,4.85
2024-03-12T03:29:22.461Z,8.43
2024-03-12T03:31:50.806Z,5.68
2024-03-12T03:34:19.544Z,6.05
2024-03-12T03:36:47.403Z,4.43
2024-03-12T03:39:15.270Z,5.85
2024-03-12T03:41:43.070Z,4.13
2024-03-12T03:44:10.896Z,4.95
2024-03-12T03:46:39.570Z,4.93
2024-03-12T03:49:08.812Z,6.75
2024-03-12T03:51:38.089Z,9.45
2024-03-12T03:54:05.997Z,6.32
2024-03-12T03:56:33.781Z,4.60
2024-03-12T03:59:02.289Z,5.07
2024-03-12T04:01:30.338Z,3.58
2024-03-12T04:03:58.296Z,2.90
2024-03-12T04:06:26.151Z,8.98
2024-03-12T04:08:55.388Z,6.93
2024-03-12T04:11:23.868Z,7.65
2024-03-12T04:13:55.680Z,6.50
2024-03-12T04:16:23.550Z,4.65
2024-03-12T04:18:51.460Z,4.53
2024-03-12T04:21:21.006Z,4.85
2024-03-12T04:23:48.910Z,7.47
2024-03-12T04:26:18.110Z,8.38
2024-03-12T04:28:45.971Z,6.97
2024-03-12T04:31:13.844Z,9.77
2024-03-12T04:33:41.777Z,7.70
2024-03-12T04:36:09.812Z,7.32
2024-03-12T04:38:37.665Z,6.32
2024-03-12T04:41:05.677Z,6.75
2024-03-12T04:43:34.883Z,5.80
2024-03-12T04:46:02.776Z,8.25
2024-03-12T04:48:30.732Z,6.90
2024-03-12T04:50:58.732Z,4.85
2024-03-12T04:53:26.742Z,7.32
2024-03-12T04:55:54.668Z,5.63
2024-03-12T04:58:22.552Z,7.85
2024-03-12T05:00:51.860Z,8.38
2024-03-12T05:03:19.960Z,8.35
2024-03-12T05:05:47.876Z,6.88
2024-03-12T05:08:15.729Z,6.93
2024-03-12T05:10:43.596Z,7.85
2024-03-12T05:13:11.553Z,5.28
2024-03-12T05:15:40.485Z,8.32
2024-03-12T05:18:09.919Z,5.57
2024-03-12T05:20:37.825Z,5.18
2024-03-12T05:23:11.230Z,5.22
2024-03-12T05:25:42.624Z,4.78
2024-03-12T05:28:11.556Z,7.63
2024-03-12T05:30:42.038Z,6.18
2024-03-12T05:33:15.319Z,6.88
2024-03-12T05:35:48.940Z,5.97
2024-03-12T05:38:33.449Z,6.38
2024-03-12T05:41:16.109Z,7.65
2024-03-12T05:44:01.384Z,13.95
2024-03-12T05:46:47.272Z,6.05
2024-03-12T05:49:16.701Z,11.45
2024-03-12T05:51:45.088Z,6.65
2024-03-12T05:54:13.163Z,6.95
2024-03-12T05:56:41.082Z,5.55
2024-03-12T05:59:09.141Z,9.35
2024-03-12T06:01:37.084Z,6.32
2024-03-12T06:04:06.078Z,5.40
2024-03-12T06:06:35.459Z,7.00
2024-03-12T06:09:03.296Z,7.40
2024-03-12T06:11:32.552Z,5.90
2024-03-12T06:14:04.307Z,8.40
2024-03-12T06:16:32.504Z,6.00
2024-03-12T06:19:00.484Z,7.55
2024-03-12T06:21:28.682Z,6.70
2024-03-12T06:23:57.989Z,6.53
2024-03-12T06:26:26.393Z,6.47
2024-03-12T06:28:55.033Z,6.82
2024-03-12T06:31:23.937Z,6.38
2024-03-12T06:33:51.876Z,7.30
2024-03-12T06:36:19.755Z,7.85
2024-03-12T06:38:48.370Z,6.00
2024-03-12T06:41:17.606Z,8.50
2024-03-12T06:43:45.462Z,7.38
2024-03-12T06:46:19.994Z,8.93
2024-03-12T06:48:48.494Z,7.47
2024-03-12T06:51:16.826Z,5.70
2024-03-12T06:53:45.901Z,8.15
2024-03-12T06:56:17.305Z,6.40
2024-03-12T06:58:47.223Z,9.13
2024-03-12T07:01:16.463Z,9.05
2024-03-12T07:03:44.929Z,8.40
2024-03-12T07:06:13.139Z,9.38
2024-03-12T07:08:41.000Z,6.40
2024-03-12T07:11:11.657Z,5.85
2024-03-12T07:13:41.438Z,6.70
2024-03-12T07:16:12.012Z,6.18
2024-03-12T07:18:40.137Z,8.10
2024-03-12T07:21:08.190Z,10.38
2024-03-12T07:23:37.882Z,8.30
2024-03-12T07:26:06.196Z,8.95
2024-03-12T07:28:34.035Z,7.93
2024-03-12T07:31:03.964Z,7.78
2024-03-12T07:33:33.395Z,7.03
2024-03-12T07:36:05.164Z,8.73
2024-03-12T07:38:33.072Z,9.93
2024-03-12T07:41:01.616Z,9.07
2024-03-12T07:43:30.569Z,8.32
2024-03-12T07:45:58.464Z,11.00
2024-03-12T07:48:26.569Z,7.95
2024-03-12T07:50:57.971Z,10.25
2024-03-12T07:53:29.667Z,14.98
2024-03-12T07:56:01.820Z,10.20
2024-03-12T07:58:30.042Z,8.40
2024-03-12T08:00:57.970Z,10.25
2024-03-12T08:03:26.354Z,10.13
2024-03-12T08:05:56.057Z,9.38
2024-03-12T08:08:24.179Z,7.82
2024-03-12T08:10:51.980Z,13.23
2024-03-12T08:13:19.937Z,10.90
2024-03-12T08:15:47.859Z,9.00
2024-03-12T08:18:20.902Z,11.73
2024-03-12T08:20:49.765Z,9.88
2024-03-12T08:23:20.691Z,9.52
2024-03-12T08:25:56.308Z,11.27
2024-03-12T08:28:28.215Z,7.72
2024-03-12T08:31:00.033Z,10.15
2024-03-12T08:33:32.871Z,9.60
2024-03-12T08:36:00.798Z,8.70
2024-03-12T08:38:30.087Z,8.45
2024-03-12T08:40:58.118Z,11.45
2024-03-12T08:43:26.320Z,10.00
2024-03-12T08:45:54.233Z,9.45
2024-03-12T08:48:22.663Z,11.23
2024-03-12T08:50:50.583Z,8.32
2024-03-12T08:53:18.433Z,10.80
2024-03-12T08:55:47.727Z,8.98
2024-03-12T08:58:15.604Z,10.90
2024-03-12T09:00:44.379Z,9.50
2024-03-12T09:03:12.334Z,10.43
2024-03-12T09:05:41.612Z,11.02
2024-03-12T09:08:10.441Z,11.32
2024-03-12T09:10:38.802Z,9.52
2024-03-12T09:13:08.496Z,12.57
2024-03-12T09:15:37.180Z,10.73
2024-03-12T09:18:07.667Z,10.00
2024-03-12T09:20:37.592Z,12.02
2024-03-12T09:23:05.914Z,13.23
2024-03-12T09:25:33.847Z,12.93
2024-03-12T09:28:02.298Z,11.55
2024-03-12T09:30:31.585Z,12.32
2024-03-12T09:32:59.505Z,11.18
2024-03-12T09:35:27.514Z,12.60
2024-03-12T09:37:56.994Z,15.80
2024-03-12T09:40:24.899Z,15.38
2024-03-12T09:42:54.220Z,14.25
2024-03-12T09:45:22.777Z,16.30
2024-03-12T09:47:53.711Z,14.75
2024-03-12T09:50:24.256Z,17.92
2024-03-12T09:52:52.169Z,18.42
2024-03-12T09:55:21.011Z,16.13
2024-03-12T09:57:48.962Z,18.42
2024-03-12T10:00:20.359Z,16.58
2024-03-12T10:02:49.163Z,20.25
2024-03-12T10:05:18.624Z,17.33
2024-03-12T10:08:13.788Z,17.70
2024-03-12T10:10:42.881Z,15.02
2024-03-12T10:13:15.744Z,16.92
2024-03-12T10:15:54.264Z,16.33
2024-03-12T10:18:22.972Z,19.95
2024-03-12T10:20:55.428Z,16.63
2024-03-12T10:23:24.420Z,16.63
2024-03-12T10:25:52.335Z,18.42
2024-03-12T10:28:26.081Z,17.65
2024-03-12T10:30:54.478Z,17.13
2024-03-12T10:33:22.734Z,18.17
2024-03-12T10:35:52.377Z,13.93
2024-03-12T10:38:27.146Z,16.17
2024-03-12T10:40:56.636Z,16.23
2024-03-12T10:43:25.685Z,17.50
2024-03-12T10:45:55.145Z,15.23
2024-03-12T10:48:23.245Z,14.10
2024-03-12T10:50:53.296Z,12.63
2024-03-12T10:53:22.350Z,14.20
2024-03-12T10:55:50.191Z,12.95
2024-03-12T10:58:18.348Z,13.93
2024-03-12T11:00:46.677Z,13.80
2024-03-12T11:03:17.062Z,15.73
2024-03-12T11:05:44.941Z,12.27
2024-03-12T11:08:15.215Z,12.63
2024-03-12T11:10:43.403Z,12.52
2024-03-12T11:13:11.797Z,10.70
2024-03-12T11:15:41.337Z,10.48
2024-03-12T11:18:10.663Z,12.93
2024-03-12T11:20:40.664Z,15.40
2024-03-12T11:23:08.608Z,13.57
2024-03-12T11:25:49.659Z,10.25
2024-03-12T11:28:23.206Z,10.20
2024-03-12T11:31:01.055Z,11.07
2024-03-12T11:33:50.291Z,13.82
2024-03-12T11:36:30.005Z,10.80
2024-03-12T11:38:59.661Z,12.73
2024-03-12T11:41:44.963Z,11.02
2024-03-12T11:44:19.883Z,13.57
2024-03-12T11:46:48.321Z,14.82
2024-03-12T11:49:34.865Z,14.25
2024-03-12T11:52:03.332Z,14.60
2024-03-12T11:54:44.098Z,12.52
2024-03-12T11:57:23.529Z,14.27
2024-03-12T11:59:52.054Z,12.25
2024-03-12T12:02:21.587Z,13.43
2024-03-12T12:04:52.507Z,12.38
2024-03-12T12:07:21.215Z,12.65
2024-03-12T12:09:50.145Z,11.25
2024-03-12T12:12:18.761Z,11.68
2024-03-12T12:14:48.907Z,10.15
2024-03-12T12:17:22.869Z,12.30
2024-03-12T12:20:05.701Z,10.60
2024-03-12T12:22:36.101Z,11.90
2024-03-12T12:25:04.541Z,13.07
2024-03-12T12:27:32.066Z,9.90
2024-03-12T12:30:04.159Z,10.73
2024-03-12T12:32:32.614Z,11.18
2024-03-12T12:35:00.460Z,11.57
2024-03-12T12:37:29.321Z,11.65
2024-03-12T12:39:59.724Z,11.20
2024-03-12T12:42:28.444Z,11.77
2024-03-12T12:44:57.003Z,12.35
2024-03-12T12:47:27.321Z,12.75
2024-03-12T12:49:55.428Z,11.70
2024-03-12T12:52:24.619Z,12.25
2024-03-12T12:54:59.035Z,11.25
2024-03-12T12:57:28.825Z,10.57
2024-03-12T12:59:58.340Z,11.30
2024-03-12T13:02:30.595Z,11.68
2024-03-12T13:04:58.952Z,13.43
2024-03-12T13:07:31.352Z,15.65
2024-03-12T13:10:02.418Z,14.93
2024-03-12T13:12:30.374Z,14.02
2024-03-12T13:14:58.211Z,15.77
2024-03-12T13:17:30.282Z,17.02
2024-03-12T13:19:58.236Z,17.83
2024-03-12T13:22:30.899Z,17.48
2024-03-12T13:24:59.679Z,19.95
2024-03-12T13:27:27.575Z,16.45
2024-03-12T13:29:55.911Z,16.70
2024-03-12T13:32:23.813Z,18.63
2024-03-12T13:34:53.177Z,16.20
2024-03-12T13:37:21.167Z,17.65
2024-03-12T13:39:49.076Z,15.90
2024-03-12T13:42:17.085Z,20.05
2024-03-12T13:44:44.947Z,17.42
2024-03-12T13:47:12.815Z,18.90
2024-03-12T13:49:41.371Z,19.60
2024-03-12T13:52:11.046Z,17.98
2024-03-12T13:54:40.292Z,17.50
2024-03-12T13:57:09.457Z,20.90
2024-03-12T13:59:41.172Z,18.67
2024-03-12T14:02:09.470Z,18.08
2024-03-12T14:04:37.712Z,19.30
2024-03-12T14:07:06.680Z,22.55
2024-03-12T14:09:35.894Z,18.95
2024-03-12T14:12:03.834Z,21.25
2024-03-12T14:14:33.768Z,21.98
2024-03-12T14:17:01.772Z,20.45
2024-03-12T14:19:29.580Z,22.30
2024-03-12T14:21:57.447Z,19.50
2024-03-12T14:24:26.196Z,22.20
2024-03-12T14:26:55.833Z,23.73
2024-03-12T14:29:23.617Z,21.50
2024-03-12T14:31:51.750Z,28.58
2024-03-12T14:34:19.594Z,25.40
2024-03-12T14:36:47.467Z,21.75
2024-03-12T14:39:15.358Z,22.48
2024-03-12T14:41:43.842Z,25.77
2024-03-12T14:44:13.459Z,23.92
2024-03-12T14:46:42.591Z,23.80
2024-03-12T14:49:10.554Z,24.20
2024-03-12T14:51:40.158Z,22.45
2024-03-12T14:54:08.119Z,21.45
2024-03-12T14:56:35.923Z,24.30
2024-03-12T14:59:04.800Z,21.20
2024-03-12T15:01:34.105Z,22.85
2024-03-12T15:04:02.674Z,22.88
2024-03-12T15:06:30.570Z,25.17
2024-03-12T15:08:59.198Z,21.75
2024-03-12T15:11:27.203Z,27.10
2024-03-12T15:13:55.872Z,21.83
2024-03-12T15:16:23.932Z,24.67
2024-03-12T15:18:54.265Z,24.75
2024-03-12T15:21:22.210Z,22.15
2024-03-12T15:23:50.046Z,26.00
2024-03-12T15:26:17.960Z,26.65
2024-03-12T15:28:45.767Z,23.40
2024-03-12T15:31:13.636Z,26.85
2024-03-12T15:33:41.538Z,26.30
2024-03-12T15:36:11.424Z,23.50
2024-03-12T15:38:39.254Z,24.90
2024-03-12T15:41:07.702Z,30.50
2024-03-12T15:43:35.640Z,27.75
2024-03-12T15:46:04.116Z,21.83
2024-03-12T15:48:32.757Z,25.75
2024-03-12T15:51:01.648Z,24.58
2024-03-12T15:53:30.848Z,23.00
2024-03-12T15:56:00.009Z,25.05
2024-03-12T15:58:28.343Z,25.05
2024-03-12T16:00:58.109Z,30.45
2024-03-12T16:03:26.080Z,20.95
2024-03-12T16:05:54.023Z,24.58
2024-03-12T16:08:21.918Z,23.08
2024-03-12T16:10:52.689Z,29.35
2024-03-12T16:13:20.857Z,25.33
2024-03-12T16:15:48.820Z,26.35
2024-03-12T16:18:16.774Z,23.30
2024-03-12T16:20:44.731Z,22.27
2024-03-12T16:23:12.534Z,26.13
2024-03-12T16:25:40.346Z,22.10
2024-03-12T16:28:10.603Z,26.90
2024-03-12T16:30:39.168Z,28.45
2024-03-12T16:33:07.046Z,25.42
2024-03-12T16:35:34.857Z,30.08
2024-03-12T16:38:02.676Z,27.25
2024-03-12T16:40:30.476Z,24.27
2024-03-12T16:42:58.670Z,23.73
2024-03-12T16:45:27.770Z,26.92
2024-03-12T16:47:55.638Z,24.00
2024-03-12T16:50:23.734Z,27.02
2024-03-12T16:52:51.484Z,24.45
2024-03-12T16:55:20.800Z,25.70
2024-03-12T16:57:49.382Z,22.75
2024-03-12T17:00:18.151Z,23.75
2024-03-12T17:02:48.896Z,28.75
2024-03-12T17:05:18.040Z,25.25
2024-03-12T17:07:49.370Z,24.25
2024-03-12T17:10:17.849Z,27.83
2024-03-12T17:12:46.420Z,22.25
2024-03-12T17:15:16.704Z,24.05
2024-03-12T17:17:44.936Z,25.83
2024-03-12T17:20:15.033Z,23.15
2024-03-12T17:22:43.455Z,25.45
2024-03-12T17:25:12.360Z,25.67
2024-03-12T17:27:42.269Z,24.98
2024-03-12T17:30:11.809Z,26.55
2024-03-12T17:32:41.927Z,27.50
2024-03-12T17:35:12.478Z,25.85
2024-03-12T17:37:41.706Z,23.52
2024-03-12T17:40:15.048Z,31.38
2024-03-12T17:42:45.093Z,25.80
2024-03-12T17:45:14.259Z,28.15
2024-03-12T17:47:52.012Z,31.33
2024-03-12T17:50:21.333Z,29.80
2024-03-12T17:52:53.022Z,33.67
2024-03-12T17:55:22.498Z,31.90
2024-03-12T17:57:51.920Z,35.03
2024-03-12T18:00:22.097Z,38.38
2024-03-12T18:02:50.813Z,42.80
2024-03-12T18:05:21.101Z,39.92
2024-03-12T18:07:52.935Z,34.25
2024-03-12T18:10:21.980Z,44.50
2024-03-12T18:12:50.527Z,43.88
2024-03-12T18:15:19.866Z,38.47
2024-03-12T18:17:48.498Z,42.17
2024-03-12T18:20:21.596Z,42.20
2024-03-12T18:22:50.771Z,43.22
2024-03-12T18:25:19.071Z,45.70
2024-03-12T18:27:51.214Z,48.20
2024-03-12T18:30:19.828Z,45.13
2024-03-12T18:32:49.572Z,49.35
2024-03-12T18:35:19.804Z,47.47
2024-03-12T18:37:47.858Z,49.25
2024-03-12T18:40:19.819Z,46.47
2024-03-12T18:42:48.947Z,55.65
2024-03-12T18:45:19.212Z,49.75
2024-03-12T18:47:48.936Z,46.33
2024-03-12T18:50:18.196Z,50.13
2024-03-12T18:52:46.583Z,47.63
2024-03-12T18:55:17.913Z,43.78
2024-03-12T18:57:47.497Z,47.60
2024-03-12T19:00:19.154Z,46.58
2024-03-12T19:02:47.891Z,45.08
2024-03-12T19:05:18.067Z,42.65
2024-03-12T19:07:47.415Z,47.13
2024-03-12T19:10:16.119Z,46.58
2024-03-12T19:12:45.478Z,44.60
2024-03-12T19:15:16.631Z,45.05
2024-03-12T19:17:45.828Z,46.92
2024-03-12T19:20:16.632Z,48.38
2024-03-12T19:22:45.140Z,49.80
2024-03-12T19:25:14.421Z,49.60
2024-03-12T19:27:45.781Z,43.40
2024-03-12T19:30:16.397Z,51.28
2024-03-12T19:32:44.814Z,47.50
2024-03-12T19:35:14.149Z,53.00
2024-03-12T19:37:43.008Z,48.90
2024-03-12T19:40:13.642Z,52.40
2024-03-12T19:42:44.568Z,52.50
2024-03-12T19:45:13.264Z,48.85
2024-03-12T19:47:45.322Z,52.83
2024-03-12T19:50:16.046Z,52.10
2024-03-12T19:52:46.452Z,53.67
2024-03-12T19:55:19.308Z,55.25
2024-03-12T19:57:51.248Z,57.30
2024-03-12T20:00:20.783Z,59.45
2024-03-12T20:02:50.079Z,57.50
2024-03-12T20:05:20.510Z,55.88
2024-03-12T20:07:48.735Z,55.13
2024-03-12T20:10:17.335Z,55.35
2024-03-12T20:12:45.319Z,59.10
2024-03-12T20:15:14.323Z,58.08
2024-03-12T20:17:42.840Z,66.75
2024-03-12T20:20:14.066Z,57.50
2024-03-12T20:22:42.096Z,58.30
2024-03-12T20:25:10.651Z,59.53
2024-03-12T20:27:38.547Z,64.38
2024-03-12T20:30:07.592Z,61.03
2024-03-12T20:32:36.310Z,59.10
2024-03-12T20:35:04.270Z,59.50
2024-03-12T20:37:34.634Z,60.78
2024-03-12T20:40:06.311Z,57.85
2024-03-12T20:42:35.919Z,62.38
2024-03-12T20:45:07.138Z,62.97
2024-03-12T20:47:35.187Z,61.83
2024-03-12T20:50:03.110Z,64.13
2024-03-12T20:52:30.968Z,65.70
2024-03-12T20:55:01.907Z,60.60
2024-03-12T20:57:30.065Z,60.95
2024-03-12T20:59:59.332Z,66.13
2024-03-12T21:02:29.042Z,60.97
2024-03-12T21:04:56.925Z,63.30
2024-03-12T21:07:24.963Z,63.22
2024-03-12T21:09:53.377Z,62.03
2024-03-12T21:12:22.672Z,61.13
2024-03-12T21:14:50.578Z,61.08
2024-03-12T21:17:18.737Z,62.55
2024-03-12T21:19:46.912Z,58.80
2024-03-12T21:22:16.760Z,57.33
2024-03-12T21:24:45.043Z,56.47
2024-03-12T21:27:12.892Z,53.38
2024-03-12T21:29:43.215Z,56.33
2024-03-12T21:32:11.111Z,57.13
2024-03-12T21:34:39.180Z,52.33
2024-03-12T21:37:07.780Z,58.05
2024-03-12T21:39:35.669Z,63.17
2024-03-12T21:42:06.881Z,50.45
2024-03-12T21:44:35.854Z,52.25
2024-03-12T21:47:05.337Z,56.22
2024-03-12T21:49:33.256Z,51.47
2024-03-12T21:52:01.247Z,51.88
2024-03-12T21:54:29.093Z,44.38
2024-03-12T21:56:56.980Z,47.67
2024-03-12T21:59:24.848Z,53.17
2024-03-12T22:01:52.700Z,45.38
2024-03-12T22:04:22.112Z,46.58
2024-03-12T22:06:51.056Z,50.75
2024-03-12T22:09:19.141Z,44.92
2024-03-12T22:11:47.829Z,47.55
2024-03-12T22:14:15.810Z,42.88
2024-03-12T22:16:43.719Z,44.10
2024-03-12T22:19:15.245Z,41.67
2024-03-12T22:21:48.750Z,40.38
2024-03-12T22:24:23.113Z,43.03
2024-03-12T22:26:51.734Z,49.65
2024-03-12T22:29:19.628Z,49.10
2024-03-12T22:31:47.490Z,40.50
2024-03-12T22:34:16.122Z,45.75
2024-03-12T22:36:45.847Z,48.88
2024-03-12T22:39:14.545Z,42.88
2024-03-12T22:41:48.941Z,47.08
2024-03-12T22:44:17.357Z,42.00
2024-03-12T22:46:46.096Z,42.15
2024-03-12T22:49:14.338Z,42.30
2024-03-12T22:51:43.326Z,47.28
2024-03-12T22:54:12.909Z,48.20
2024-03-12T22:56:41.182Z,42.10
2024-03-12T22:59:09.615Z,47.80
2024-03-12T23:01:40.843Z,46.20
2024-03-12T23:04:09.395Z,42.53
2024-03-12T23:06:37.639Z,44.70
2024-03-12T23:09:05.904Z,45.72
2024-03-12T23:11:35.105Z,40.63
2024-03-12T23:14:05.702Z,42.25
2024-03-12T23:16:34.100Z,45.33
2024-03-12T23:19:02.066Z,43.95
2024-03-12T23:21:31.205Z,38.50
2024-03-12T23:23:59.802Z,38.58
2024-03-12T23:26:29.616Z,37.70
2024-03-12T23:28:59.506Z,44.38
2024-03-12T23:31:27.468Z,38.50
2024-03-12T23:33:56.317Z,39.58
2024-03-12T23:36:28.510Z,39.10
2024-03-12T23:38:56.585Z,39.70
2024-03-12T23:41:24.799Z,36.33
2024-03-12T23:43:54.017Z,35.75
2024-03-12T23:46:23.284Z,35.05
2024-03-12T23:48:51.233Z,39.00
2024-03-12T23:51:19.122Z,35.35
2024-03-12T23:53:47.187Z,34.90
2024-03-12T23:56:15.655Z,34.25
2024-03-12T23:58:44.609Z,34.15
